createdAt,value
2024-02-08T00:00:32.879Z,4.10
2024-02-08T00:03:26.412Z,3.90
2024-02-08T00:05:59.855Z,4.00
2024-02-08T00:08:36.518Z,4.00
2024-02-08T00:11:10.192Z,3.30
2024-02-08T00:13:43.778Z,4.20
2024-02-08T00:16:17.593Z,4.30
2024-02-08T00:18:51.432Z,3.90
2024-02-08T00:21:25.120Z,3.80
2024-02-08T00:23:58.779Z,3.70
2024-02-08T00:26:32.760Z,4.30
2024-02-08T00:29:06.519Z,3.80
2024-02-08T00:31:40.260Z,4.10
2024-02-08T00:34:14.006Z,3.40
2024-02-08T00:36:50.379Z,3.90
2024-02-08T00:39:24.181Z,3.60
2024-02-08T00:41:59.261Z,3.40
2024-02-08T00:44:32.873Z,3.70
2024-02-08T00:47:07.850Z,3.50
2024-02-08T00:49:41.983Z,3.70
2024-02-08T00:52:15.574Z,3.20
2024-02-08T00:54:52.287Z,3.80
2024-02-08T00:57:26.312Z,3.80
2024-02-08T01:00:00.286Z,3.50
2024-02-08T01:02:36.270Z,3.30
2024-02-08T01:05:10.785Z,3.60
2024-02-08T01:07:44.491Z,3.30
2024-02-08T01:10:18.273Z,3.20
2024-02-08T01:12:53.734Z,3.60
2024-02-08T01:15:27.972Z,3.50
2024-02-08T01:18:04.657Z,3.30
2024-02-08T01:20:38.149Z,3.10
2024-02-08T01:23:11.760Z,3.20
2024-02-08T01:25:45.397Z,3.20
2024-02-08T01:28:19.129Z,3.20
2024-02-08T01:30:53.869Z,3.40
2024-02-08T01:33:27.807Z,3.20
2024-02-08T01:36:01.430Z,3.20
2024-02-08T01:38:34.867Z,3.30
2024-02-08T01:41:08.586Z,3.30
2024-02-08T01:43:42.099Z,3.40
2024-02-08T01:46:17.198Z,3.10
2024-02-08T01:48:51.029Z,3.10
2024-02-08T01:51:25.930Z,2.90
2024-02-08T01:54:02.517Z,3.30
2024-02-08T01:56:37.664Z,3.30
2024-02-08T01:59:13.000Z,3.00
2024-02-08T02:01:51.951Z,3.20
2024-02-08T02:04:25.670Z,2.70
2024-02-08T02:07:03.458Z,3.10
2024-02-08T02:09:37.479Z,3.00
2024-02-08T02:12:16.719Z,3.10
2024-02-08T02:14:50.422Z,3.00
2024-02-08T02:17:27.516Z,2.90
2024-02-08T02:20:08.255Z,3.00
2024-02-08T02:22:44.618Z,3.00
2024-02-08T02:25:18.415Z,3.50
2024-02-08T02:27:54.424Z,3.10
2024-02-08T02:30:29.728Z,2.90
2024-02-08T02:33:05.238Z,3.20
2024-02-08T02:35:38.745Z,3.30
2024-02-08T02:38:14.550Z,3.00
2024-02-08T02:40:48.512Z,3.10
2024-02-08T02:43:27.555Z,3.30
2024-02-08T02:46:01.326Z,3.10
2024-02-08T02:48:36.210Z,3.60
2024-02-08T02:51:12.985Z,3.50
2024-02-08T02:53:46.685Z,3.10
2024-02-08T02:56:20.946Z,3.20
2024-02-08T02:58:55.923Z,3.00
2024-02-08T03:01:34.928Z,2.90
2024-02-08T03:04:08.845Z,3.00
2024-02-08T03:06:43.968Z,3.00
2024-02-08T03:09:18.749Z,3.10
2024-02-08T03:11:52.446Z,3.20
2024-02-08T03:14:25.957Z,3.10
2024-02-08T03:17:03.164Z,3.10
2024-02-08T03:19:37.969Z,3.20
2024-02-08T03:22:11.680Z,3.70
2024-02-08T03:24:45.592Z,3.30
2024-02-08T03:27:22.934Z,3.30
2024-02-08T03:29:56.488Z,3.40
2024-02-08T03:32:30.185Z,3.10
2024-02-08T03:35:06.326Z,3.60
2024-02-08T03:37:45.042Z,3.70
2024-02-08T03:42:51.107Z,3.40
2024-02-08T03:45:28.726Z,3.50
2024-02-08T03:48:03.051Z,3.30
2024-02-08T03:50:36.744Z,3.40
2024-02-08T03:53:14.116Z,3.10
2024-02-08T03:55:48.666Z,3.60
2024-02-08T03:58:24.582Z,4.00
2024-02-08T04:01:01.435Z,3.40
2024-02-08T04:03:54.569Z,3.70
2024-02-08T04:06:50.517Z,3.70
2024-02-08T04:09:35.715Z,4.00
2024-02-08T04:12:28.801Z,3.90
2024-02-08T04:15:19.759Z,3.80
2024-02-08T04:18:10.960Z,4.00
2024-02-08T04:21:02.393Z,3.90
2024-02-08T04:26:46.140Z,3.70
2024-02-08T04:29:38.067Z,4.20
2024-02-08T04:32:29.904Z,4.20
2024-02-08T04:35:21.258Z,4.00
2024-02-08T04:38:12.561Z,3.90
2024-02-08T04:44:04.592Z,3.80
2024-02-08T04:46:55.712Z,4.50
2024-02-08T04:49:57.678Z,4.10
2024-02-08T04:52:48.454Z,3.80
2024-02-08T04:55:22.111Z,4.10
2024-02-08T04:58:19.309Z,3.80
2024-02-08T05:00:50.645Z,4.20
2024-02-08T05:03:24.456Z,4.50
2024-02-08T05:05:58.344Z,3.70
2024-02-08T05:08:32.396Z,4.40
2024-02-08T05:11:10.811Z,4.20
2024-02-08T05:16:18.620Z,4.20
2024-02-08T05:18:54.672Z,4.50
2024-02-08T05:21:32.408Z,4.30
2024-02-08T05:24:06.732Z,4.40
2024-02-08T05:26:41.969Z,4.80
2024-02-08T05:29:21.094Z,4.80
2024-02-08T05:31:55.548Z,5.20
2024-02-08T05:34:29.646Z,5.10
2024-02-08T05:37:04.702Z,4.90
2024-02-08T05:39:38.743Z,4.90
2024-02-08T05:42:15.464Z,4.50
2024-02-08T05:44:49.887Z,4.80
2024-02-08T05:47:27.504Z,4.60
2024-02-08T05:50:08.161Z,4.70
2024-02-08T05:52:41.607Z,4.90
2024-02-08T05:55:15.138Z,4.80
2024-02-08T05:57:48.730Z,4.90
2024-02-08T06:00:37.319Z,4.80
2024-02-08T06:03:11.168Z,4.40
2024-02-08T06:05:50.426Z,4.90
2024-02-08T06:08:27.339Z,4.70
2024-02-08T06:11:05.410Z,4.80
2024-02-08T06:13:42.760Z,5.50
2024-02-08T06:16:27.765Z,5.10
2024-02-08T06:19:05.176Z,5.00
2024-02-08T06:21:41.927Z,4.60
2024-02-08T06:24:33.466Z,4.70
2024-02-08T06:27:14.806Z,5.40
2024-02-08T06:29:49.095Z,4.80
2024-02-08T06:32:45.487Z,5.30
2024-02-08T06:35:26.770Z,5.10
2024-02-08T06:38:03.942Z,5.00
2024-02-08T06:40:51.955Z,5.00
2024-02-08T06:43:46.452Z,5.10
2024-02-08T06:46:40.330Z,5.60
2024-02-08T06:49:31.746Z,5.10
2024-02-08T06:52:23.541Z,5.50
2024-02-08T06:55:14.894Z,5.20
2024-02-08T06:58:06.401Z,5.60
2024-02-08T07:00:57.612Z,5.70
2024-02-08T07:03:48.903Z,5.80
2024-02-08T07:06:40.197Z,5.70
2024-02-08T07:09:31.239Z,6.00
2024-02-08T07:12:34.208Z,5.50
2024-02-08T07:15:27.196Z,5.40
2024-02-08T07:18:14.826Z,5.50
2024-02-08T07:21:05.713Z,5.10
2024-02-08T07:23:56.915Z,5.60
2024-02-08T07:29:39.588Z,5.50
2024-02-08T07:32:30.881Z,5.90
2024-02-08T07:35:22.846Z,6.00
2024-02-08T07:37:57.091Z,5.70
2024-02-08T07:40:36.518Z,6.10
2024-02-08T07:43:21.427Z,5.60
2024-02-08T07:45:56.975Z,6.10
2024-02-08T07:48:41.127Z,5.70
2024-02-08T07:51:17.313Z,6.20
2024-02-08T07:53:55.114Z,5.70
2024-02-08T07:56:41.240Z,6.20
2024-02-08T07:59:37.074Z,5.80
2024-02-08T08:02:25.923Z,6.10
2024-02-08T08:05:04.591Z,5.80
2024-02-08T08:07:45.952Z,5.50
2024-02-08T08:10:27.152Z,5.90
2024-02-08T08:13:07.274Z,5.80
2024-02-08T08:15:51.015Z,6.20
2024-02-08T08:18:31.213Z,6.10
2024-02-08T08:21:05.500Z,5.80
2024-02-08T08:23:59.072Z,6.10
2024-02-08T08:26:40.754Z,6.20
2024-02-08T08:29:18.150Z,6.50
2024-02-08T08:31:53.718Z,6.60
2024-02-08T08:34:45.167Z,6.10
2024-02-08T08:37:40.354Z,5.90
2024-02-08T08:40:39.362Z,6.20
2024-02-08T08:43:21.312Z,6.60
2024-02-08T08:46:00.906Z,6.30
2024-02-08T08:48:36.748Z,6.40
2024-02-08T08:51:13.999Z,6.20
2024-02-08T08:53:58.211Z,6.40
2024-02-08T08:56:32.321Z,6.20
2024-02-08T08:59:05.872Z,6.00
2024-02-08T09:01:41.974Z,6.50
2024-02-08T09:04:27.638Z,5.70
2024-02-08T09:07:11.637Z,6.90
2024-02-08T09:10:03.859Z,5.80
2024-02-08T09:12:40.538Z,6.60
2024-02-08T09:15:27.721Z,6.40
2024-02-08T09:18:10.372Z,6.50
2024-02-08T09:20:45.251Z,6.30
2024-02-08T09:23:22.184Z,5.90
2024-02-08T09:25:59.350Z,6.30
2024-02-08T09:28:37.254Z,6.40
2024-02-08T09:31:15.376Z,6.10
2024-02-08T09:33:51.749Z,5.90
2024-02-08T09:36:26.962Z,6.40
2024-02-08T09:39:00.406Z,6.30
2024-02-08T09:41:35.739Z,5.80
2024-02-08T09:44:13.081Z,6.20
2024-02-08T09:46:58.091Z,6.10
2024-02-08T09:49:36.468Z,6.20
2024-02-08T09:54:56.497Z,5.90
2024-02-08T09:57:42.174Z,5.80
2024-02-08T10:00:53.612Z,5.90
2024-02-08T10:03:40.323Z,5.80
2024-02-08T10:06:25.084Z,6.00
2024-02-08T10:09:18.494Z,5.30
2024-02-08T10:11:58.937Z,6.10
2024-02-08T10:14:34.857Z,5.90
2024-02-08T10:17:19.604Z,6.30
2024-02-08T10:20:32.936Z,5.90
2024-02-08T10:23:17.597Z,5.40
2024-02-08T10:26:18.538Z,5.80
2024-02-08T10:28:55.055Z,5.90
2024-02-08T10:31:30.287Z,5.60
2024-02-08T10:34:12.057Z,5.90
2024-02-08T10:36:47.324Z,5.90
2024-02-08T10:39:26.359Z,5.60
2024-02-08T10:42:00.875Z,5.60
2024-02-08T10:44:35.974Z,5.90
2024-02-08T10:47:11.174Z,5.70
2024-02-08T10:49:47.466Z,5.40
2024-02-08T10:52:24.073Z,5.80
2024-02-08T10:54:59.087Z,5.50
2024-02-08T10:57:40.916Z,5.90
2024-02-08T11:00:31.781Z,5.80
2024-02-08T11:03:16.435Z,5.70
2024-02-08T11:06:02.503Z,5.30
2024-02-08T11:08:51.434Z,5.40
2024-02-08T11:11:25.151Z,5.50
2024-02-08T11:14:01.132Z,5.50
2024-02-08T11:16:39.127Z,5.80
2024-02-08T11:19:18.596Z,5.80
2024-02-08T11:21:53.079Z,5.20
2024-02-08T11:24:31.018Z,5.60
2024-02-08T11:27:05.681Z,6.80
2024-02-08T11:29:49.045Z,5.60
2024-02-08T11:32:25.562Z,5.90
2024-02-08T11:35:02.238Z,5.20
2024-02-08T11:37:39.860Z,5.20
2024-02-08T11:40:22.394Z,5.90
2024-02-08T11:43:00.304Z,5.70
2024-02-08T11:45:38.127Z,5.00
2024-02-08T11:48:16.282Z,5.10
2024-02-08T11:50:52.633Z,5.30
2024-02-08T11:53:33.769Z,5.60
2024-02-08T11:56:11.204Z,5.40
2024-02-08T11:58:48.010Z,5.10
2024-02-08T12:01:27.562Z,4.90
2024-02-08T12:04:03.135Z,5.30
2024-02-08T12:06:37.056Z,5.40
2024-02-08T12:09:23.464Z,4.90
2024-02-08T12:11:57.018Z,5.60
2024-02-08T12:14:30.465Z,5.80
2024-02-08T12:17:07.657Z,5.40
2024-02-08T12:19:41.960Z,4.80
2024-02-08T12:22:18.910Z,5.30
2024-02-08T12:25:01.447Z,5.50
2024-02-08T12:27:37.150Z,5.30
2024-02-08T12:30:13.832Z,5.80
2024-02-08T12:32:47.379Z,5.80
2024-02-08T12:35:26.499Z,5.70
2024-02-08T12:38:01.466Z,5.30
2024-02-08T12:40:35.438Z,4.80
2024-02-08T12:43:10.533Z,5.20
2024-02-08T12:45:44.240Z,5.20
2024-02-08T12:48:21.912Z,5.40
2024-02-08T12:51:04.693Z,5.80
2024-02-08T12:53:40.441Z,4.90
2024-02-08T12:56:16.968Z,5.30
2024-02-08T12:59:00.798Z,5.10
2024-02-08T13:01:41.114Z,4.90
2024-02-08T13:04:21.198Z,5.20
2024-02-08T13:06:56.753Z,4.90
2024-02-08T13:09:32.068Z,5.10
2024-02-08T13:12:20.193Z,4.70
2024-02-08T13:15:07.320Z,5.00
2024-02-08T13:17:40.870Z,5.10
2024-02-08T13:20:16.010Z,4.80
2024-02-08T13:22:50.403Z,5.20
2024-02-08T13:25:29.402Z,5.00
2024-02-08T13:28:04.670Z,5.30
2024-02-08T13:30:40.902Z,4.70
2024-02-08T13:33:15.051Z,4.70
2024-02-08T13:35:49.065Z,5.20
2024-02-08T13:38:24.009Z,5.40
2024-02-08T13:41:00.798Z,5.00
2024-02-08T13:43:34.814Z,5.00
2024-02-08T13:46:09.322Z,4.90
2024-02-08T13:48:42.833Z,4.70
2024-02-08T13:51:17.901Z,4.80
2024-02-08T13:53:52.162Z,4.70
2024-02-08T13:56:25.675Z,4.70
2024-02-08T13:59:01.691Z,5.00
2024-02-08T14:01:35.469Z,4.50
2024-02-08T14:04:09.196Z,4.60
2024-02-08T14:06:43.739Z,5.00
2024-02-08T14:09:22.017Z,4.70
2024-02-08T14:11:57.137Z,4.80
2024-02-08T14:14:41.593Z,5.20
2024-02-08T14:17:21.717Z,4.90
2024-02-08T14:19:56.775Z,5.00
2024-02-08T14:22:39.968Z,5.10
2024-02-08T14:25:24.888Z,4.70
2024-02-08T14:27:58.586Z,4.90
2024-02-08T14:30:35.346Z,4.80
2024-02-08T14:33:09.050Z,5.50
2024-02-08T14:35:42.688Z,5.30
2024-02-08T14:38:16.443Z,4.90
2024-02-08T14:40:49.980Z,5.10
2024-02-08T14:43:33.120Z,5.10
2024-02-08T14:46:07.356Z,5.20
2024-02-08T14:48:40.854Z,5.70
2024-02-08T14:51:28.355Z,5.90
2024-02-08T14:54:01.821Z,6.30
2024-02-08T14:56:36.425Z,6.20
2024-02-08T14:59:14.655Z,8.90
2024-02-08T15:01:54.015Z,7.30
2024-02-08T15:04:32.162Z,7.40
2024-02-08T15:07:10.168Z,7.60
2024-02-08T15:09:50.080Z,7.80
2024-02-08T15:12:32.344Z,7.40
2024-02-08T15:15:08.610Z,7.40
2024-02-08T15:17:45.261Z,7.00
2024-02-08T15:20:36.689Z,7.70
2024-02-08T15:26:14.483Z,7.30
2024-02-08T15:28:57.093Z,7.40
2024-02-08T15:31:47.334Z,7.30
2024-02-08T15:34:29.137Z,7.50
2024-02-08T15:37:21.473Z,6.90
2024-02-08T15:40:15.631Z,7.70
2024-02-08T15:42:50.654Z,8.20
2024-02-08T15:45:28.773Z,7.60
2024-02-08T15:48:05.585Z,8.20
2024-02-08T15:50:44.876Z,7.90
2024-02-08T15:53:19.749Z,7.50
2024-02-08T15:55:57.466Z,7.70
2024-02-08T15:58:32.005Z,7.40
2024-02-08T16:01:21.452Z,7.70
2024-02-08T16:03:56.638Z,7.70
2024-02-08T16:06:44.627Z,7.60
2024-02-08T16:09:34.137Z,8.40
2024-02-08T16:12:23.289Z,8.00
2024-02-08T16:15:01.861Z,7.80
2024-02-08T16:17:40.838Z,8.40
2024-02-08T16:20:25.659Z,8.00
2024-02-08T16:23:07.905Z,8.50
2024-02-08T16:25:46.730Z,8.20
2024-02-08T16:28:22.257Z,8.50
2024-02-08T16:31:08.289Z,8.10
2024-02-08T16:33:50.365Z,8.30
2024-02-08T16:36:36.567Z,7.90
2024-02-08T16:39:31.278Z,8.70
2024-02-08T16:42:19.022Z,9.20
2024-02-08T16:44:58.007Z,9.40
2024-02-08T16:47:36.115Z,8.50
2024-02-08T16:50:19.428Z,8.50
2024-02-08T16:53:00.608Z,8.40
2024-02-08T16:55:41.066Z,8.80
2024-02-08T16:58:30.022Z,9.40
2024-02-08T17:01:06.557Z,8.30
2024-02-08T17:04:02.272Z,9.60
2024-02-08T17:06:44.824Z,8.90
2024-02-08T17:09:25.733Z,9.70
2024-02-08T17:12:06.589Z,9.30
2024-02-08T17:14:48.303Z,9.20
2024-02-08T17:17:36.230Z,8.60
2024-02-08T17:20:24.172Z,9.00
2024-02-08T17:23:06.944Z,9.00
2024-02-08T17:25:56.896Z,9.30
2024-02-08T17:28:37.445Z,9.30
2024-02-08T17:31:23.211Z,9.60
2024-02-08T17:33:58.216Z,9.70
2024-02-08T17:36:34.622Z,9.60
2024-02-08T17:39:12.310Z,10.00
2024-02-08T17:41:45.850Z,9.70
2024-02-08T17:44:20.356Z,9.80
2024-02-08T17:46:54.238Z,9.80
2024-02-08T17:49:31.219Z,9.90
2024-02-08T17:52:07.107Z,10.50
2024-02-08T17:54:47.072Z,10.00
2024-02-08T17:57:25.273Z,9.70
2024-02-08T18:00:00.830Z,10.10
2024-02-08T18:02:37.572Z,11.40
2024-02-08T18:05:15.952Z,10.30
2024-02-08T18:10:38.728Z,10.10
2024-02-08T18:13:12.550Z,10.30
2024-02-08T18:15:52.223Z,10.80
2024-02-08T18:18:26.715Z,10.70
2024-02-08T18:21:03.909Z,10.20
2024-02-08T18:23:45.406Z,10.40
2024-02-08T18:26:32.975Z,10.00
2024-02-08T18:29:09.117Z,10.10
2024-02-08T18:31:57.152Z,10.90
2024-02-08T18:35:18.071Z,10.20
2024-02-08T18:38:09.918Z,10.40
2024-02-08T18:40:55.002Z,10.40
2024-02-08T18:43:41.366Z,10.50
2024-02-08T18:46:18.844Z,10.90
2024-02-08T18:48:57.881Z,11.20
2024-02-08T18:51:37.412Z,10.70
2024-02-08T18:54:12.890Z,11.50
2024-02-08T18:56:47.911Z,10.50
2024-02-08T18:59:21.946Z,10.60
2024-02-08T19:02:05.537Z,11.70
2024-02-08T19:05:13.074Z,11.20
2024-02-08T19:08:16.758Z,10.80
2024-02-08T19:10:59.828Z,10.70
2024-02-08T19:13:40.967Z,11.20
2024-02-08T19:16:29.323Z,12.00
2024-02-08T19:19:06.289Z,11.10
2024-02-08T19:21:59.977Z,11.90
2024-02-08T19:33:00.736Z,11.10
2024-02-08T19:35:55.837Z,12.30
2024-02-08T19:38:32.576Z,11.10
2024-02-08T19:41:08.426Z,10.80
2024-02-08T19:43:46.753Z,11.50
2024-02-08T19:46:21.255Z,11.70
2024-02-08T19:48:59.124Z,11.90
2024-02-08T19:51:37.366Z,11.00
2024-02-08T19:54:10.830Z,11.70
2024-02-08T19:56:44.998Z,11.40
2024-02-08T19:59:20.730Z,11.40
2024-02-08T20:01:55.465Z,11.40
2024-02-08T20:04:29.258Z,11.60
2024-02-08T20:07:06.220Z,11.20
2024-02-08T20:09:43.760Z,11.50
2024-02-08T20:12:18.177Z,12.00
2024-02-08T20:14:52.830Z,11.70
2024-02-08T20:17:27.255Z,11.10
2024-02-08T20:20:01.476Z,11.50
2024-02-08T20:22:35.117Z,11.50
2024-02-08T20:25:12.796Z,10.70
2024-02-08T20:27:46.953Z,11.80
2024-02-08T20:30:22.520Z,11.40
2024-02-08T20:33:00.313Z,11.40
2024-02-08T20:35:35.015Z,11.50
2024-02-08T20:38:13.057Z,11.60
2024-02-08T20:40:47.386Z,12.70
2024-02-08T20:43:23.863Z,11.60
2024-02-08T20:46:00.576Z,11.00
2024-02-08T20:48:34.951Z,11.50
2024-02-08T20:51:11.301Z,11.80
2024-02-08T20:53:45.042Z,11.80
2024-02-08T20:56:27.342Z,11.90
2024-02-08T20:59:02.616Z,11.40
2024-02-08T21:01:37.370Z,11.30
2024-02-08T21:04:15.500Z,10.70
2024-02-08T21:06:49.904Z,11.50
2024-02-08T21:09:23.518Z,12.00
2024-02-08T21:11:57.405Z,11.80
2024-02-08T21:14:33.779Z,11.90
2024-02-08T21:17:12.078Z,11.50
2024-02-08T21:19:48.724Z,11.70
2024-02-08T21:22:23.841Z,12.30
2024-02-08T21:24:57.568Z,11.90
2024-02-08T21:27:34.758Z,11.40
2024-02-08T21:30:12.802Z,12.10
2024-02-08T21:32:49.198Z,11.50
2024-02-08T21:35:22.905Z,11.20
2024-02-08T21:37:56.318Z,11.70
2024-02-08T21:40:29.921Z,11.40
2024-02-08T21:43:05.733Z,11.30
2024-02-08T21:45:43.002Z,11.60
2024-02-08T21:48:17.478Z,11.30
2024-02-08T21:50:53.334Z,11.00
2024-02-08T21:53:27.465Z,10.60
2024-02-08T21:56:01.162Z,11.40
2024-02-08T21:58:35.406Z,11.20
2024-02-08T22:04:06.135Z,11.20
2024-02-08T22:06:41.052Z,10.90
2024-02-08T22:09:15.161Z,11.10
2024-02-08T22:11:54.954Z,11.00
2024-02-08T22:14:31.825Z,11.00
2024-02-08T22:17:10.857Z,11.00
2024-02-08T22:19:47.567Z,10.10
2024-02-08T22:22:21.355Z,10.20
2024-02-08T22:24:55.692Z,10.80
2024-02-08T22:27:29.931Z,11.00
2024-02-08T22:30:03.977Z,10.50
2024-02-08T22:32:37.482Z,10.70
2024-02-08T22:35:12.803Z,11.20
2024-02-08T22:37:50.227Z,10.60
2024-02-08T22:40:24.385Z,10.70
2024-02-08T22:43:00.181Z,10.50
2024-02-08T22:45:34.386Z,10.10
2024-02-08T22:48:09.075Z,10.90
2024-02-08T22:50:42.911Z,11.50
2024-02-08T22:53:16.332Z,10.70
2024-02-08T22:55:52.170Z,10.80
2024-02-08T22:58:25.869Z,11.00
2024-02-08T23:01:22.307Z,10.90
2024-02-08T23:03:56.833Z,10.30
2024-02-08T23:06:34.267Z,10.70
2024-02-08T23:09:09.810Z,10.60
2024-02-08T23:11:44.532Z,10.20
2024-02-08T23:14:21.696Z,10.70
2024-02-08T23:16:55.454Z,11.40
2024-02-08T23:19:33.428Z,10.70
2024-02-08T23:22:08.915Z,10.40
2024-02-08T23:24:43.035Z,9.90
2024-02-08T23:27:16.851Z,10.20
2024-02-08T23:29:51.023Z,9.50
2024-02-08T23:32:26.310Z,9.90
2024-02-08T23:34:59.852Z,9.80
2024-02-08T23:37:33.500Z,10.10
2024-02-08T23:40:09.694Z,10.30
2024-02-08T23:42:43.236Z,10.00
2024-02-08T23:45:17.589Z,10.50
2024-02-08T23:47:51.611Z,9.90
2024-02-08T23:50:26.070Z,9.70
2024-02-08T23:53:01.820Z,9.70
2024-02-08T23:55:38.965Z,9.50
2024-02-08T23:58:15.645Z,9.80
